Terminal Aerodrome Forecast
Issued by NWS Buffalo, NY

Home | Current Version | Previous Version | Text Only | Print | Product List | Glossary On
Versions: 1 2 3 4 5 6 7 8 9 10 11 12 13 14 15 16 17 18 19 20 21 22 23 24
000
FTUS41 KBUF 281500 AAA
TAFBUF
TAF AMD
KBUF 281500Z 2815/0112 22010KT P6SM SKC
     FM282300 22006KT P6SM SCT250
     FM010300 16004KT P6SM SCT250
     FM010800 VRB04KT P6SM BKN130
     FM011100 17004KT P6SM VCSH OVC035=

USA.gov is the U.S. government's official web portal to all federal, state and local government web resources and services.